sensor_id;sensor_type;location;lat;lon;timestamp;temperature;humidity
70807;DHT22;58882;52.170;5.386;2023-12-20T00:02:13;13.40;59.50
70807;DHT22;58882;52.170;5.386;2023-12-20T00:04:39;13.40;59.50
70807;DHT22;58882;52.170;5.386;2023-12-20T00:07:06;13.40;59.60
70807;DHT22;58882;52.170;5.386;2023-12-20T00:09:33;13.40;59.60
70807;DHT22;58882;52.170;5.386;2023-12-20T00:12:00;13.40;59.60
70807;DHT22;58882;52.170;5.386;2023-12-20T00:14:27;13.30;59.70
70807;DHT22;58882;52.170;5.386;2023-12-20T00:16:54;13.30;60.60
70807;DHT22;58882;52.170;5.386;2023-12-20T00:19:21;13.30;59.70
70807;DHT22;58882;52.170;5.386;2023-12-20T00:21:48;13.30;59.70
70807;DHT22;58882;52.170;5.386;2023-12-20T00:24:15;13.30;59.80
70807;DHT22;58882;52.170;5.386;2023-12-20T00:26:43;13.30;59.90
70807;DHT22;58882;52.170;5.386;2023-12-20T00:29:09;13.30;59.80
70807;DHT22;58882;52.170;5.386;2023-12-20T00:31:36;13.30;59.70
70807;DHT22;58882;52.170;5.386;2023-12-20T00:34:03;13.30;59.80
70807;DHT22;58882;52.170;5.386;2023-12-20T00:36:30;13.20;59.60
70807;DHT22;58882;52.170;5.386;2023-12-20T00:38:57;13.20;59.70
70807;DHT22;58882;52.170;5.386;2023-12-20T00:41:24;13.20;59.80
70807;DHT22;58882;52.170;5.386;2023-12-20T00:43:50;13.20;59.80
70807;DHT22;58882;52.170;5.386;2023-12-20T00:46:17;13.20;60.80
70807;DHT22;58882;52.170;5.386;2023-12-20T00:48:44;13.10;59.90
70807;DHT22;58882;52.170;5.386;2023-12-20T00:51:12;13.10;59.90
70807;DHT22;58882;52.170;5.386;2023-12-20T00:53:39;13.10;60.00
70807;DHT22;58882;52.170;5.386;2023-12-20T00:56:06;13.10;59.80
70807;DHT22;58882;52.170;5.386;2023-12-20T00:58:33;13.10;59.80
70807;DHT22;58882;52.170;5.386;2023-12-20T01:00:59;13.10;59.80
70807;DHT22;58882;52.170;5.386;2023-12-20T01:03:26;13.10;60.00
70807;DHT22;58882;52.170;5.386;2023-12-20T01:05:53;13.10;60.00
70807;DHT22;58882;52.170;5.386;2023-12-20T01:08:20;13.10;60.10
70807;DHT22;58882;52.170;5.386;2023-12-20T01:10:47;13.00;60.80
70807;DHT22;58882;52.170;5.386;2023-12-20T01:13:14;13.00;59.80
70807;DHT22;58882;52.170;5.386;2023-12-20T01:15:41;13.00;59.90
70807;DHT22;58882;52.170;5.386;2023-12-20T01:18:08;13.00;59.90
70807;DHT22;58882;52.170;5.386;2023-12-20T01:20:35;13.00;59.90
70807;DHT22;58882;52.170;5.386;2023-12-20T01:23:03;13.00;59.90
70807;DHT22;58882;52.170;5.386;2023-12-20T01:25:29;13.00;60.00
70807;DHT22;58882;52.170;5.386;2023-12-20T01:27:56;12.90;60.10
70807;DHT22;58882;52.170;5.386;2023-12-20T01:30:23;13.00;60.00
70807;DHT22;58882;52.170;5.386;2023-12-20T01:32:51;13.00;60.00
70807;DHT22;58882;52.170;5.386;2023-12-20T01:35:18;13.00;59.80
70807;DHT22;58882;52.170;5.386;2023-12-20T01:37:45;13.00;59.80
70807;DHT22;58882;52.170;5.386;2023-12-20T01:40:12;13.00;59.80
70807;DHT22;58882;52.170;5.386;2023-12-20T01:42:39;12.90;59.80
70807;DHT22;58882;52.170;5.386;2023-12-20T01:45:07;12.90;59.70
70807;DHT22;58882;52.170;5.386;2023-12-20T01:47:34;12.90;59.80
70807;DHT22;58882;52.170;5.386;2023-12-20T01:50:01;12.90;59.90
70807;DHT22;58882;52.170;5.386;2023-12-20T01:52:30;12.90;59.90
70807;DHT22;58882;52.170;5.386;2023-12-20T01:54:58;12.90;59.90
70807;DHT22;58882;52.170;5.386;2023-12-20T01:57:30;12.90;59.90
70807;DHT22;58882;52.170;5.386;2023-12-20T01:59:57;12.90;60.30
70807;DHT22;58882;52.170;5.386;2023-12-20T02:02:26;12.90;60.00
70807;DHT22;58882;52.170;5.386;2023-12-20T02:04:54;12.90;60.20
70807;DHT22;58882;52.170;5.386;2023-12-20T02:07:22;12.90;60.10
70807;DHT22;58882;52.170;5.386;2023-12-20T02:09:50;12.90;60.20
70807;DHT22;58882;52.170;5.386;2023-12-20T02:12:17;12.90;60.20
70807;DHT22;58882;52.170;5.386;2023-12-20T02:14:44;12.90;60.30
70807;DHT22;58882;52.170;5.386;2023-12-20T02:17:11;12.90;60.30
70807;DHT22;58882;52.170;5.386;2023-12-20T02:19:37;12.90;60.20
70807;DHT22;58882;52.170;5.386;2023-12-20T02:22:09;12.90;60.30
70807;DHT22;58882;52.170;5.386;2023-12-20T02:24:36;12.90;60.40
70807;DHT22;58882;52.170;5.386;2023-12-20T02:27:05;12.90;60.40
70807;DHT22;58882;52.170;5.386;2023-12-20T02:29:34;12.80;60.40
70807;DHT22;58882;52.170;5.386;2023-12-20T02:32:01;12.90;60.40
70807;DHT22;58882;52.170;5.386;2023-12-20T02:34:29;12.80;60.40
70807;DHT22;58882;52.170;5.386;2023-12-20T02:36:56;12.90;60.40
70807;DHT22;58882;52.170;5.386;2023-12-20T02:39:23;12.80;60.40
70807;DHT22;58882;52.170;5.386;2023-12-20T02:41:50;12.90;60.40
70807;DHT22;58882;52.170;5.386;2023-12-20T02:44:17;12.90;60.40
70807;DHT22;58882;52.170;5.386;2023-12-20T02:46:44;12.80;60.40
70807;DHT22;58882;52.170;5.386;2023-12-20T02:49:11;12.90;60.40
70807;DHT22;58882;52.170;5.386;2023-12-20T02:51:38;12.90;60.40
70807;DHT22;58882;52.170;5.386;2023-12-20T02:54:05;12.90;60.40
70807;DHT22;58882;52.170;5.386;2023-12-20T02:56:33;12.90;60.40
70807;DHT22;58882;52.170;5.386;2023-12-20T02:58:59;12.90;60.40
70807;DHT22;58882;52.170;5.386;2023-12-20T03:01:27;12.90;60.40
70807;DHT22;58882;52.170;5.386;2023-12-20T03:03:54;13.00;61.40
70807;DHT22;58882;52.170;5.386;2023-12-20T03:06:21;12.90;60.40
70807;DHT22;58882;52.170;5.386;2023-12-20T03:08:48;12.90;60.40
70807;DHT22;58882;52.170;5.386;2023-12-20T03:11:15;12.90;60.40
70807;DHT22;58882;52.170;5.386;2023-12-20T03:13:42;13.00;60.50
70807;DHT22;58882;52.170;5.386;2023-12-20T03:16:13;12.90;60.40
70807;DHT22;58882;52.170;5.386;2023-12-20T03:18:40;12.90;61.30
70807;DHT22;58882;52.170;5.386;2023-12-20T03:21:07;12.90;60.40
70807;DHT22;58882;52.170;5.386;2023-12-20T03:23:34;12.90;60.40
70807;DHT22;58882;52.170;5.386;2023-12-20T03:26:01;12.90;60.20
70807;DHT22;58882;52.170;5.386;2023-12-20T03:28:29;13.00;60.30
70807;DHT22;58882;52.170;5.386;2023-12-20T03:30:56;12.90;60.00
70807;DHT22;58882;52.170;5.386;2023-12-20T03:33:23;12.90;60.20
70807;DHT22;58882;52.170;5.386;2023-12-20T03:35:49;12.90;60.30
70807;DHT22;58882;52.170;5.386;2023-12-20T03:38:16;12.90;60.30
70807;DHT22;58882;52.170;5.386;2023-12-20T03:40:43;13.00;60.40
70807;DHT22;58882;52.170;5.386;2023-12-20T03:43:10;13.00;60.00
70807;DHT22;58882;52.170;5.386;2023-12-20T03:45:37;13.00;60.00
70807;DHT22;58882;52.170;5.386;2023-12-20T03:48:05;13.00;60.10
70807;DHT22;58882;52.170;5.386;2023-12-20T03:50:32;13.00;60.10
70807;DHT22;58882;52.170;5.386;2023-12-20T03:52:59;13.00;60.00
70807;DHT22;58882;52.170;5.386;2023-12-20T03:55:25;13.00;60.00
70807;DHT22;58882;52.170;5.386;2023-12-20T03:57:52;13.00;59.90
70807;DHT22;58882;52.170;5.386;2023-12-20T04:00:20;13.00;59.80
70807;DHT22;58882;52.170;5.386;2023-12-20T04:02:47;13.00;59.90
70807;DHT22;58882;52.170;5.386;2023-12-20T04:05:13;13.10;59.80
70807;DHT22;58882;52.170;5.386;2023-12-20T04:07:40;13.10;59.70
70807;DHT22;58882;52.170;5.386;2023-12-20T04:10:08;13.10;59.60
70807;DHT22;58882;52.170;5.386;2023-12-20T04:12:35;13.10;59.60
70807;DHT22;58882;52.170;5.386;2023-12-20T04:15:02;13.20;59.50
70807;DHT22;58882;52.170;5.386;2023-12-20T04:17:35;13.20;59.50
70807;DHT22;58882;52.170;5.386;2023-12-20T04:20:03;13.20;59.30
70807;DHT22;58882;52.170;5.386;2023-12-20T04:22:30;13.10;59.30
70807;DHT22;58882;52.170;5.386;2023-12-20T04:24:57;13.10;59.20
70807;DHT22;58882;52.170;5.386;2023-12-20T04:27:24;13.10;59.20
70807;DHT22;58882;52.170;5.386;2023-12-20T04:29:51;13.10;60.20
70807;DHT22;58882;52.170;5.386;2023-12-20T04:32:17;13.10;59.40
70807;DHT22;58882;52.170;5.386;2023-12-20T04:34:44;13.20;59.40
70807;DHT22;58882;52.170;5.386;2023-12-20T04:37:11;13.20;59.50
70807;DHT22;58882;52.170;5.386;2023-12-20T04:39:39;13.20;59.50
70807;DHT22;58882;52.170;5.386;2023-12-20T04:42:07;13.30;60.30
70807;DHT22;58882;52.170;5.386;2023-12-20T04:44:34;13.30;59.20
70807;DHT22;58882;52.170;5.386;2023-12-20T04:47:01;13.30;59.10
70807;DHT22;58882;52.170;5.386;2023-12-20T04:49:28;13.30;59.00
70807;DHT22;58882;52.170;5.386;2023-12-20T04:51:55;13.30;59.00
70807;DHT22;58882;52.170;5.386;2023-12-20T04:54:22;13.30;58.80
70807;DHT22;58882;52.170;5.386;2023-12-20T04:56:49;13.30;58.60
70807;DHT22;58882;52.170;5.386;2023-12-20T04:59:16;13.30;58.80
70807;DHT22;58882;52.170;5.386;2023-12-20T05:01:43;13.30;58.90
70807;DHT22;58882;52.170;5.386;2023-12-20T05:04:10;13.30;58.80
70807;DHT22;58882;52.170;5.386;2023-12-20T05:06:37;13.20;59.10
70807;DHT22;58882;52.170;5.386;2023-12-20T05:09:04;13.30;59.20
70807;DHT22;58882;52.170;5.386;2023-12-20T05:11:31;13.30;59.30
70807;DHT22;58882;52.170;5.386;2023-12-20T05:13:57;13.30;59.20
70807;DHT22;58882;52.170;5.386;2023-12-20T05:16:24;13.30;59.20
70807;DHT22;58882;52.170;5.386;2023-12-20T05:18:51;13.30;59.10
70807;DHT22;58882;52.170;5.386;2023-12-20T05:21:19;13.30;59.10
70807;DHT22;58882;52.170;5.386;2023-12-20T05:23:47;13.30;58.90
70807;DHT22;58882;52.170;5.386;2023-12-20T05:26:13;13.30;59.00
70807;DHT22;58882;52.170;5.386;2023-12-20T05:28:40;13.30;59.30
70807;DHT22;58882;52.170;5.386;2023-12-20T05:31:07;13.30;59.40
70807;DHT22;58882;52.170;5.386;2023-12-20T05:33:34;13.40;59.10
70807;DHT22;58882;52.170;5.386;2023-12-20T05:36:01;13.40;59.00
70807;DHT22;58882;52.170;5.386;2023-12-20T05:38:28;13.40;60.00
70807;DHT22;58882;52.170;5.386;2023-12-20T05:40:55;13.40;58.80
70807;DHT22;58882;52.170;5.386;2023-12-20T05:43:21;13.40;58.80
70807;DHT22;58882;52.170;5.386;2023-12-20T05:45:48;13.50;59.00
70807;DHT22;58882;52.170;5.386;2023-12-20T05:48:15;13.50;58.60
70807;DHT22;58882;52.170;5.386;2023-12-20T05:50:42;13.40;58.30
70807;DHT22;58882;52.170;5.386;2023-12-20T05:53:09;13.40;58.30
70807;DHT22;58882;52.170;5.386;2023-12-20T05:55:36;13.40;58.60
70807;DHT22;58882;52.170;5.386;2023-12-20T05:58:03;13.40;58.80
70807;DHT22;58882;52.170;5.386;2023-12-20T06:00:30;13.40;58.60
70807;DHT22;58882;52.170;5.386;2023-12-20T06:02:56;13.40;58.40
70807;DHT22;58882;52.170;5.386;2023-12-20T06:05:23;13.40;58.30
70807;DHT22;58882;52.170;5.386;2023-12-20T06:07:50;13.40;59.20
70807;DHT22;58882;52.170;5.386;2023-12-20T06:10:18;13.40;58.30
70807;DHT22;58882;52.170;5.386;2023-12-20T06:12:45;13.40;58.40
70807;DHT22;58882;52.170;5.386;2023-12-20T06:15:14;13.40;58.50
70807;DHT22;58882;52.170;5.386;2023-12-20T06:17:41;13.40;58.40
70807;DHT22;58882;52.170;5.386;2023-12-20T06:20:08;13.40;58.10
70807;DHT22;58882;52.170;5.386;2023-12-20T06:22:35;13.30;58.00
70807;DHT22;58882;52.170;5.386;2023-12-20T06:25:03;13.30;58.00
70807;DHT22;58882;52.170;5.386;2023-12-20T06:27:30;13.30;58.10
70807;DHT22;58882;52.170;5.386;2023-12-20T06:29:59;13.30;58.10
70807;DHT22;58882;52.170;5.386;2023-12-20T06:32:26;13.30;57.90
70807;DHT22;58882;52.170;5.386;2023-12-20T06:34:52;13.30;58.00
70807;DHT22;58882;52.170;5.386;2023-12-20T06:37:19;13.30;58.30
70807;DHT22;58882;52.170;5.386;2023-12-20T06:39:46;13.30;58.10
70807;DHT22;58882;52.170;5.386;2023-12-20T06:42:13;13.30;58.00
70807;DHT22;58882;52.170;5.386;2023-12-20T06:44:40;13.30;57.90
70807;DHT22;58882;52.170;5.386;2023-12-20T06:47:07;13.30;58.00
70807;DHT22;58882;52.170;5.386;2023-12-20T06:49:34;13.20;58.00
70807;DHT22;58882;52.170;5.386;2023-12-20T06:52:01;13.20;58.20
70807;DHT22;58882;52.170;5.386;2023-12-20T06:54:28;13.20;58.20
70807;DHT22;58882;52.170;5.386;2023-12-20T06:56:55;13.30;58.10
70807;DHT22;58882;52.170;5.386;2023-12-20T06:59:22;13.30;58.00
70807;DHT22;58882;52.170;5.386;2023-12-20T07:01:49;13.30;57.90
70807;DHT22;58882;52.170;5.386;2023-12-20T07:04:16;13.30;58.90
70807;DHT22;58882;52.170;5.386;2023-12-20T07:06:49;13.20;57.90
70807;DHT22;58882;52.170;5.386;2023-12-20T07:09:19;13.20;57.60
70807;DHT22;58882;52.170;5.386;2023-12-20T07:11:45;13.20;57.70
70807;DHT22;58882;52.170;5.386;2023-12-20T07:14:12;13.20;57.80
70807;DHT22;58882;52.170;5.386;2023-12-20T07:16:39;13.20;57.90
70807;DHT22;58882;52.170;5.386;2023-12-20T07:19:06;13.20;58.00
70807;DHT22;58882;52.170;5.386;2023-12-20T07:21:34;13.20;58.10
70807;DHT22;58882;52.170;5.386;2023-12-20T07:24:00;13.30;58.20
70807;DHT22;58882;52.170;5.386;2023-12-20T07:26:27;13.30;58.10
70807;DHT22;58882;52.170;5.386;2023-12-20T07:28:54;13.40;57.80
70807;DHT22;58882;52.170;5.386;2023-12-20T07:31:21;13.40;57.60
70807;DHT22;58882;52.170;5.386;2023-12-20T07:33:48;13.50;57.60
70807;DHT22;58882;52.170;5.386;2023-12-20T07:36:15;13.50;57.60
70807;DHT22;58882;52.170;5.386;2023-12-20T07:38:42;13.50;57.50
70807;DHT22;58882;52.170;5.386;2023-12-20T07:41:10;13.50;57.40
70807;DHT22;58882;52.170;5.386;2023-12-20T07:43:38;13.50;57.40
70807;DHT22;58882;52.170;5.386;2023-12-20T07:46:08;13.50;57.20
70807;DHT22;58882;52.170;5.386;2023-12-20T07:48:35;13.50;57.30
70807;DHT22;58882;52.170;5.386;2023-12-20T07:51:03;13.50;57.20
70807;DHT22;58882;52.170;5.386;2023-12-20T07:53:30;13.50;57.30
70807;DHT22;58882;52.170;5.386;2023-12-20T07:55:58;13.50;57.40
70807;DHT22;58882;52.170;5.386;2023-12-20T07:58:25;13.50;57.30
70807;DHT22;58882;52.170;5.386;2023-12-20T08:01:11;13.50;57.40
70807;DHT22;58882;52.170;5.386;2023-12-20T08:03:38;13.50;57.40
70807;DHT22;58882;52.170;5.386;2023-12-20T08:06:05;13.50;57.30
70807;DHT22;58882;52.170;5.386;2023-12-20T08:08:32;13.50;57.20
70807;DHT22;58882;52.170;5.386;2023-12-20T08:10:59;13.50;57.30
70807;DHT22;58882;52.170;5.386;2023-12-20T08:13:29;13.50;57.30
70807;DHT22;58882;52.170;5.386;2023-12-20T08:15:56;13.50;57.30
70807;DHT22;58882;52.170;5.386;2023-12-20T08:18:23;13.60;57.70
70807;DHT22;58882;52.170;5.386;2023-12-20T08:20:50;13.60;58.00
70807;DHT22;58882;52.170;5.386;2023-12-20T08:23:19;13.80;58.00
70807;DHT22;58882;52.170;5.386;2023-12-20T08:25:50;13.90;57.90
70807;DHT22;58882;52.170;5.386;2023-12-20T08:28:17;14.00;57.80
70807;DHT22;58882;52.170;5.386;2023-12-20T08:30:44;14.10;57.60
70807;DHT22;58882;52.170;5.386;2023-12-20T08:33:11;14.20;57.60
70807;DHT22;58882;52.170;5.386;2023-12-20T08:35:40;14.30;57.40
70807;DHT22;58882;52.170;5.386;2023-12-20T08:38:07;14.30;57.10
70807;DHT22;58882;52.170;5.386;2023-12-20T08:40:33;14.40;57.00
70807;DHT22;58882;52.170;5.386;2023-12-20T08:43:00;14.50;56.90
70807;DHT22;58882;52.170;5.386;2023-12-20T08:45:27;14.50;56.90
70807;DHT22;58882;52.170;5.386;2023-12-20T08:47:54;14.60;56.80
70807;DHT22;58882;52.170;5.386;2023-12-20T08:50:23;14.60;56.70
70807;DHT22;58882;52.170;5.386;2023-12-20T08:52:52;14.70;56.60
70807;DHT22;58882;52.170;5.386;2023-12-20T08:55:19;14.70;56.50
70807;DHT22;58882;52.170;5.386;2023-12-20T08:57:46;14.80;56.30
70807;DHT22;58882;52.170;5.386;2023-12-20T09:00:13;14.80;56.20
70807;DHT22;58882;52.170;5.386;2023-12-20T09:02:41;14.80;56.10
70807;DHT22;58882;52.170;5.386;2023-12-20T09:05:08;14.80;56.10
70807;DHT22;58882;52.170;5.386;2023-12-20T09:07:35;14.80;56.10
70807;DHT22;58882;52.170;5.386;2023-12-20T09:10:02;14.90;56.00
70807;DHT22;58882;52.170;5.386;2023-12-20T09:12:29;14.90;56.00
70807;DHT22;58882;52.170;5.386;2023-12-20T09:14:56;14.90;55.90
70807;DHT22;58882;52.170;5.386;2023-12-20T09:17:23;14.90;55.80
70807;DHT22;58882;52.170;5.386;2023-12-20T09:19:50;14.90;55.80
70807;DHT22;58882;52.170;5.386;2023-12-20T09:22:19;14.90;55.70
70807;DHT22;58882;52.170;5.386;2023-12-20T09:24:46;14.90;55.60
70807;DHT22;58882;52.170;5.386;2023-12-20T09:27:13;15.00;55.70
70807;DHT22;58882;52.170;5.386;2023-12-20T09:29:40;15.00;55.70
70807;DHT22;58882;52.170;5.386;2023-12-20T09:32:07;15.00;55.80
70807;DHT22;58882;52.170;5.386;2023-12-20T09:34:34;15.00;55.60
70807;DHT22;58882;52.170;5.386;2023-12-20T09:37:01;15.00;55.50
70807;DHT22;58882;52.170;5.386;2023-12-20T09:39:29;15.00;55.40
70807;DHT22;58882;52.170;5.386;2023-12-20T09:42:03;15.00;55.40
70807;DHT22;58882;52.170;5.386;2023-12-20T09:44:31;15.10;55.30
70807;DHT22;58882;52.170;5.386;2023-12-20T09:46:58;15.10;55.30
70807;DHT22;58882;52.170;5.386;2023-12-20T09:49:28;15.10;55.30
70807;DHT22;58882;52.170;5.386;2023-12-20T09:51:55;15.10;55.30
70807;DHT22;58882;52.170;5.386;2023-12-20T09:54:23;15.20;55.30
70807;DHT22;58882;52.170;5.386;2023-12-20T09:56:50;15.20;55.30
70807;DHT22;58882;52.170;5.386;2023-12-20T09:59:17;15.20;55.10
70807;DHT22;58882;52.170;5.386;2023-12-20T10:01:44;15.20;55.00
70807;DHT22;58882;52.170;5.386;2023-12-20T10:04:12;15.20;55.00
70807;DHT22;58882;52.170;5.386;2023-12-20T10:06:55;15.30;55.00
70807;DHT22;58882;52.170;5.386;2023-12-20T10:09:24;15.30;54.90
70807;DHT22;58882;52.170;5.386;2023-12-20T10:11:54;15.30;54.90
70807;DHT22;58882;52.170;5.386;2023-12-20T10:14:21;15.30;54.80
70807;DHT22;58882;52.170;5.386;2023-12-20T10:16:49;15.30;54.70
70807;DHT22;58882;52.170;5.386;2023-12-20T10:19:17;15.40;54.70
70807;DHT22;58882;52.170;5.386;2023-12-20T10:21:45;15.40;54.50
70807;DHT22;58882;52.170;5.386;2023-12-20T10:24:17;15.40;54.40
70807;DHT22;58882;52.170;5.386;2023-12-20T10:26:44;15.40;54.40
70807;DHT22;58882;52.170;5.386;2023-12-20T10:29:11;15.40;54.40
70807;DHT22;58882;52.170;5.386;2023-12-20T10:31:38;15.40;54.40
70807;DHT22;58882;52.170;5.386;2023-12-20T10:34:09;15.40;54.30
70807;DHT22;58882;52.170;5.386;2023-12-20T10:36:36;15.40;54.30
70807;DHT22;58882;52.170;5.386;2023-12-20T10:39:05;15.40;54.20
70807;DHT22;58882;52.170;5.386;2023-12-20T10:41:33;15.50;54.20
70807;DHT22;58882;52.170;5.386;2023-12-20T10:44:02;15.50;54.10
70807;DHT22;58882;52.170;5.386;2023-12-20T10:46:30;15.50;54.00
70807;DHT22;58882;52.170;5.386;2023-12-20T10:48:59;15.50;54.00
70807;DHT22;58882;52.170;5.386;2023-12-20T10:51:28;15.60;53.90
70807;DHT22;58882;52.170;5.386;2023-12-20T10:53:58;15.60;53.70
70807;DHT22;58882;52.170;5.386;2023-12-20T10:56:30;15.70;53.60
70807;DHT22;58882;52.170;5.386;2023-12-20T10:59:02;15.70;53.40
70807;DHT22;58882;52.170;5.386;2023-12-20T11:01:31;15.70;53.30
70807;DHT22;58882;52.170;5.386;2023-12-20T11:03:58;15.80;53.30
70807;DHT22;58882;52.170;5.386;2023-12-20T11:09:16;15.80;53.10
70807;DHT22;58882;52.170;5.386;2023-12-20T11:11:56;15.80;53.00
70807;DHT22;58882;52.170;5.386;2023-12-20T11:14:31;15.80;53.90
70807;DHT22;58882;52.170;5.386;2023-12-20T11:17:11;15.80;52.90
70807;DHT22;58882;52.170;5.386;2023-12-20T11:22:25;15.80;52.90
70807;DHT22;58882;52.170;5.386;2023-12-20T11:24:53;15.90;53.90
70807;DHT22;58882;52.170;5.386;2023-12-20T11:27:20;15.90;52.70
70807;DHT22;58882;52.170;5.386;2023-12-20T11:29:55;15.90;52.60
70807;DHT22;58882;52.170;5.386;2023-12-20T11:34:58;15.90;52.50
70807;DHT22;58882;52.170;5.386;2023-12-20T11:37:39;15.90;52.60
70807;DHT22;58882;52.170;5.386;2023-12-20T11:40:17;16.00;52.50
70807;DHT22;58882;52.170;5.386;2023-12-20T11:42:48;16.00;52.40
70807;DHT22;58882;52.170;5.386;2023-12-20T11:45:22;16.00;52.30
70807;DHT22;58882;52.170;5.386;2023-12-20T11:47:52;16.10;52.20
70807;DHT22;58882;52.170;5.386;2023-12-20T11:50:23;16.10;52.20
70807;DHT22;58882;52.170;5.386;2023-12-20T11:52:52;16.10;52.20
70807;DHT22;58882;52.170;5.386;2023-12-20T11:55:19;16.10;52.00
70807;DHT22;58882;52.170;5.386;2023-12-20T11:57:47;16.10;52.00
70807;DHT22;58882;52.170;5.386;2023-12-20T12:00:14;16.10;51.90
70807;DHT22;58882;52.170;5.386;2023-12-20T12:02:41;16.10;51.90
70807;DHT22;58882;52.170;5.386;2023-12-20T12:05:10;16.10;52.70
70807;DHT22;58882;52.170;5.386;2023-12-20T12:07:37;16.10;51.60
70807;DHT22;58882;52.170;5.386;2023-12-20T12:10:05;16.10;51.60
70807;DHT22;58882;52.170;5.386;2023-12-20T12:12:32;16.10;51.60
70807;DHT22;58882;52.170;5.386;2023-12-20T12:14:59;16.10;51.60
70807;DHT22;58882;52.170;5.386;2023-12-20T12:17:26;16.10;51.60
70807;DHT22;58882;52.170;5.386;2023-12-20T12:20:02;16.10;51.70
70807;DHT22;58882;52.170;5.386;2023-12-20T12:22:31;16.00;51.50
70807;DHT22;58882;52.170;5.386;2023-12-20T12:25:09;16.10;51.60
70807;DHT22;58882;52.170;5.386;2023-12-20T12:27:40;16.00;51.50
70807;DHT22;58882;52.170;5.386;2023-12-20T12:30:08;16.00;51.50
70807;DHT22;58882;52.170;5.386;2023-12-20T12:32:36;16.00;51.50
70807;DHT22;58882;52.170;5.386;2023-12-20T12:35:04;16.00;51.50
70807;DHT22;58882;52.170;5.386;2023-12-20T12:37:38;16.00;51.50
70807;DHT22;58882;52.170;5.386;2023-12-20T12:40:16;16.00;51.50
70807;DHT22;58882;52.170;5.386;2023-12-20T12:42:45;16.10;51.60
70807;DHT22;58882;52.170;5.386;2023-12-20T12:45:12;16.10;51.60
70807;DHT22;58882;52.170;5.386;2023-12-20T12:47:39;16.10;51.60
70807;DHT22;58882;52.170;5.386;2023-12-20T12:50:06;16.10;51.60
70807;DHT22;58882;52.170;5.386;2023-12-20T12:52:33;16.20;51.60
70807;DHT22;58882;52.170;5.386;2023-12-20T12:55:00;16.20;51.50
70807;DHT22;58882;52.170;5.386;2023-12-20T12:57:27;16.20;51.50
70807;DHT22;58882;52.170;5.386;2023-12-20T12:59:54;16.20;51.40
70807;DHT22;58882;52.170;5.386;2023-12-20T13:02:21;16.20;51.40
70807;DHT22;58882;52.170;5.386;2023-12-20T13:04:47;16.20;51.30
70807;DHT22;58882;52.170;5.386;2023-12-20T13:07:14;16.10;51.30
70807;DHT22;58882;52.170;5.386;2023-12-20T13:09:41;16.10;51.40
70807;DHT22;58882;52.170;5.386;2023-12-20T13:12:08;16.10;51.40
70807;DHT22;58882;52.170;5.386;2023-12-20T13:14:35;16.10;51.40
70807;DHT22;58882;52.170;5.386;2023-12-20T13:17:04;16.10;51.30
70807;DHT22;58882;52.170;5.386;2023-12-20T13:19:31;16.10;51.40
70807;DHT22;58882;52.170;5.386;2023-12-20T13:21:58;16.10;51.50
70807;DHT22;58882;52.170;5.386;2023-12-20T13:24:25;16.10;51.50
70807;DHT22;58882;52.170;5.386;2023-12-20T13:26:52;16.00;51.60
70807;DHT22;58882;52.170;5.386;2023-12-20T13:29:19;16.00;51.60
70807;DHT22;58882;52.170;5.386;2023-12-20T13:31:45;16.00;51.60
70807;DHT22;58882;52.170;5.386;2023-12-20T13:34:12;16.00;51.70
70807;DHT22;58882;52.170;5.386;2023-12-20T13:36:39;16.00;51.70
70807;DHT22;58882;52.170;5.386;2023-12-20T13:39:06;16.00;51.60
70807;DHT22;58882;52.170;5.386;2023-12-20T13:41:34;16.00;51.60
70807;DHT22;58882;52.170;5.386;2023-12-20T13:44:01;16.00;51.60
70807;DHT22;58882;52.170;5.386;2023-12-20T13:46:30;16.00;51.70
70807;DHT22;58882;52.170;5.386;2023-12-20T13:48:58;16.00;51.60
70807;DHT22;58882;52.170;5.386;2023-12-20T13:51:25;16.00;51.60
70807;DHT22;58882;52.170;5.386;2023-12-20T13:53:52;16.00;51.60
70807;DHT22;58882;52.170;5.386;2023-12-20T13:56:19;16.00;51.50
70807;DHT22;58882;52.170;5.386;2023-12-20T13:58:46;16.10;51.50
70807;DHT22;58882;52.170;5.386;2023-12-20T14:01:13;16.00;51.50
70807;DHT22;58882;52.170;5.386;2023-12-20T14:03:40;16.00;51.40
70807;DHT22;58882;52.170;5.386;2023-12-20T14:06:08;16.00;51.40
70807;DHT22;58882;52.170;5.386;2023-12-20T14:08:35;16.00;51.40
70807;DHT22;58882;52.170;5.386;2023-12-20T14:11:02;16.10;51.50
70807;DHT22;58882;52.170;5.386;2023-12-20T14:13:29;16.10;51.40
70807;DHT22;58882;52.170;5.386;2023-12-20T14:15:56;16.10;51.30
70807;DHT22;58882;52.170;5.386;2023-12-20T14:18:23;16.10;51.30
70807;DHT22;58882;52.170;5.386;2023-12-20T14:20:50;16.10;51.30
70807;DHT22;58882;52.170;5.386;2023-12-20T14:23:17;16.10;51.30
70807;DHT22;58882;52.170;5.386;2023-12-20T14:25:44;16.10;51.20
70807;DHT22;58882;52.170;5.386;2023-12-20T14:28:18;16.10;51.20
70807;DHT22;58882;52.170;5.386;2023-12-20T14:30:45;16.10;51.20
70807;DHT22;58882;52.170;5.386;2023-12-20T14:33:12;16.10;51.20
70807;DHT22;58882;52.170;5.386;2023-12-20T14:35:40;16.10;51.20
70807;DHT22;58882;52.170;5.386;2023-12-20T14:38:11;16.00;51.20
70807;DHT22;58882;52.170;5.386;2023-12-20T14:40:41;16.10;52.20
70807;DHT22;58882;52.170;5.386;2023-12-20T14:43:08;16.10;51.20
70807;DHT22;58882;52.170;5.386;2023-12-20T14:45:35;16.10;51.20
70807;DHT22;58882;52.170;5.386;2023-12-20T14:48:02;16.10;51.20
70807;DHT22;58882;52.170;5.386;2023-12-20T14:50:29;16.10;51.30
70807;DHT22;58882;52.170;5.386;2023-12-20T14:52:56;16.10;51.30
70807;DHT22;58882;52.170;5.386;2023-12-20T14:55:23;16.10;51.30
70807;DHT22;58882;52.170;5.386;2023-12-20T14:57:50;16.10;51.20
70807;DHT22;58882;52.170;5.386;2023-12-20T15:00:17;16.10;51.30
70807;DHT22;58882;52.170;5.386;2023-12-20T15:02:46;16.10;51.30
70807;DHT22;58882;52.170;5.386;2023-12-20T15:05:13;16.10;51.40
70807;DHT22;58882;52.170;5.386;2023-12-20T15:07:41;16.10;51.40
70807;DHT22;58882;52.170;5.386;2023-12-20T15:10:08;16.00;51.40
70807;DHT22;58882;52.170;5.386;2023-12-20T15:12:35;16.00;51.50
70807;DHT22;58882;52.170;5.386;2023-12-20T15:15:02;16.00;51.50
70807;DHT22;58882;52.170;5.386;2023-12-20T15:17:30;16.00;51.40
70807;DHT22;58882;52.170;5.386;2023-12-20T15:19:57;16.00;51.40
70807;DHT22;58882;52.170;5.386;2023-12-20T15:22:24;16.00;51.50
70807;DHT22;58882;52.170;5.386;2023-12-20T15:24:52;16.00;51.50
70807;DHT22;58882;52.170;5.386;2023-12-20T15:27:21;16.00;51.50
70807;DHT22;58882;52.170;5.386;2023-12-20T15:29:51;16.00;51.50
70807;DHT22;58882;52.170;5.386;2023-12-20T15:32:18;16.00;51.60
70807;DHT22;58882;52.170;5.386;2023-12-20T15:34:48;16.00;51.60
70807;DHT22;58882;52.170;5.386;2023-12-20T15:37:15;16.00;51.70
70807;DHT22;58882;52.170;5.386;2023-12-20T15:39:43;16.00;51.70
70807;DHT22;58882;52.170;5.386;2023-12-20T15:42:10;16.00;51.80